Weather at Headingly Airport

Public forecast

Using degrees Celsius for public forecast. Weather courtesy of forecast.io.

Closest aviation weather report (METAR) to Headingly Airport

Closest report is Mount Isa Airport, 78.6 nm (145.6 km) ENE. Retrieved 2021/09/26 00:00 UTC (25 minutes ago):

YBMA 260000Z AUTO 09008KT 060V120 9999 // NCD 30/M02 Q1015

Closest aviation forecast (TAF) to Headingly Airport

Closest forecast is Mount Isa Airport, 78.6 nm (145.6 km) ENE. Retrieved 2021-09-26 00:12 UTC (13 minutes ago):

TAF YBMA 252309Z 2600/2612 13008KT CAVOK